createdAt,value
2022-10-06T00:00:09.703Z,95657.88
2022-10-06T00:02:36.467Z,95631.25
2022-10-06T00:05:03.809Z,95651.84
2022-10-06T00:07:30.701Z,95649.75
2022-10-06T00:09:57.409Z,95649.41
2022-10-06T00:12:24.497Z,95650.53
2022-10-06T00:14:51.225Z,95611.50
2022-10-06T00:17:18.260Z,95623.41
2022-10-06T00:19:45.463Z,95645.28
2022-10-06T00:22:12.143Z,95660.59
2022-10-06T00:24:39.085Z,95669.66
2022-10-06T00:27:05.775Z,95675.50
2022-10-06T00:29:32.477Z,95683.59
2022-10-06T00:31:59.366Z,95685.94
2022-10-06T00:34:27.035Z,95666.72
2022-10-06T00:36:53.930Z,95651.09
2022-10-06T00:39:20.646Z,95651.38
2022-10-06T00:41:47.366Z,95679.19
2022-10-06T00:44:14.231Z,95686.69
2022-10-06T00:46:53.937Z,95677.50
2022-10-06T00:49:23.965Z,95665.91
2022-10-06T00:52:06.939Z,95656.34
2022-10-06T00:54:36.136Z,95668.22
2022-10-06T00:57:04.594Z,95650.31
2022-10-06T00:59:32.460Z,95676.25
2022-10-06T01:02:04.913Z,95676.81
2022-10-06T01:04:33.913Z,95683.25
2022-10-06T01:07:02.410Z,95671.66
2022-10-06T01:09:39.207Z,95696.75
2022-10-06T01:12:08.429Z,95685.28
2022-10-06T01:14:37.931Z,95691.38
2022-10-06T01:17:11.751Z,95671.22
2022-10-06T01:19:47.624Z,95627.84
2022-10-06T01:22:17.642Z,95628.66
2022-10-06T01:24:47.646Z,95645.56
2022-10-06T01:27:16.100Z,95609.38
2022-10-06T01:29:43.139Z,95629.91
2022-10-06T01:32:10.155Z,95643.44
2022-10-06T01:34:36.917Z,95658.59
2022-10-06T01:37:04.892Z,95664.19
2022-10-06T01:39:32.847Z,95648.84
2022-10-06T01:41:59.544Z,95656.25
2022-10-06T01:44:26.436Z,95685.50
2022-10-06T01:46:53.494Z,95681.44
2022-10-06T01:49:20.288Z,95680.59
2022-10-06T01:51:47.968Z,95667.50
2022-10-06T01:54:15.165Z,95656.56
2022-10-06T01:56:42.552Z,95681.50
2022-10-06T01:59:09.539Z,95685.75
2022-10-06T02:01:36.313Z,95681.16
2022-10-06T02:04:03.287Z,95670.56
2022-10-06T02:06:30.470Z,95692.28
2022-10-06T02:08:58.596Z,95681.28
2022-10-06T02:11:25.295Z,95677.13
2022-10-06T02:13:53.139Z,95679.56
2022-10-06T02:16:21.210Z,95687.72
2022-10-06T02:18:48.111Z,95679.28
2022-10-06T02:21:20.402Z,95693.63
2022-10-06T02:23:48.763Z,95687.38
2022-10-06T02:26:17.582Z,95683.63
2022-10-06T02:28:46.890Z,95672.25
2022-10-06T02:31:18.500Z,95687.81
2022-10-06T02:33:45.614Z,95699.78
2022-10-06T02:36:14.321Z,95682.66
2022-10-06T02:38:41.675Z,95722.91
2022-10-06T02:41:10.794Z,95716.19
2022-10-06T02:43:38.383Z,95712.13
2022-10-06T02:46:08.196Z,95710.63
2022-10-06T02:48:35.458Z,95728.13
2022-10-06T02:51:09.566Z,95729.47
2022-10-06T02:53:37.832Z,95717.22
2022-10-06T02:56:11.013Z,95721.72
2022-10-06T02:58:40.156Z,95735.75
2022-10-06T03:01:13.046Z,95729.09
2022-10-06T03:03:40.927Z,95725.41
2022-10-06T03:06:37.035Z,95720.03
2022-10-06T03:09:15.813Z,95746.06
2022-10-06T03:11:43.925Z,95743.44
2022-10-06T03:14:20.566Z,95743.38
2022-10-06T03:16:51.596Z,95757.59
2022-10-06T03:19:24.808Z,95761.41
2022-10-06T03:21:51.514Z,95757.41
2022-10-06T03:24:18.420Z,95736.09
2022-10-06T03:26:50.061Z,95757.31
2022-10-06T03:29:18.877Z,95759.94
2022-10-06T03:31:51.106Z,95757.09
2022-10-06T03:34:18.392Z,95771.22
2022-10-06T03:36:45.643Z,95746.47
2022-10-06T03:39:13.835Z,95763.25
2022-10-06T03:41:41.171Z,95761.66
2022-10-06T03:44:09.659Z,95767.47
2022-10-06T03:46:39.236Z,95758.31
2022-10-06T03:49:07.831Z,95750.25
2022-10-06T03:51:38.807Z,95766.47
2022-10-06T03:54:10.858Z,95773.34
2022-10-06T03:56:41.209Z,95757.81
2022-10-06T03:59:13.006Z,95765.94
2022-10-06T04:01:44.545Z,95786.09
2022-10-06T04:04:14.389Z,95798.75
2022-10-06T04:06:44.423Z,95780.25
2022-10-06T04:09:15.900Z,95775.72
2022-10-06T04:11:44.607Z,95762.88
2022-10-06T04:14:15.264Z,95789.94
2022-10-06T04:16:45.538Z,95789.03
2022-10-06T04:19:15.463Z,95784.63
2022-10-06T04:21:48.227Z,95794.16
2022-10-06T04:24:19.376Z,95766.84
2022-10-06T04:26:52.444Z,95785.03
2022-10-06T04:29:20.743Z,95819.03
2022-10-06T04:31:56.899Z,95806.16
2022-10-06T04:34:35.768Z,95815.59
2022-10-06T04:37:04.097Z,95797.03
2022-10-06T04:39:31.385Z,95801.81
2022-10-06T04:41:58.319Z,95772.72
2022-10-06T04:44:29.096Z,95786.69
2022-10-06T04:47:00.504Z,95791.63
2022-10-06T04:49:27.506Z,95806.53
2022-10-06T04:51:55.232Z,95797.75
2022-10-06T04:54:22.145Z,95819.22
2022-10-06T04:56:54.185Z,95813.28
2022-10-06T04:59:43.497Z,95809.09
2022-10-06T05:02:11.949Z,95801.53
2022-10-06T05:04:39.690Z,95817.22
2022-10-06T05:07:06.826Z,95811.69
2022-10-06T05:09:34.103Z,95814.22
2022-10-06T05:12:02.064Z,95798.41
2022-10-06T05:14:29.055Z,95776.34
2022-10-06T05:16:56.387Z,95806.16
2022-10-06T05:19:24.310Z,95855.41
2022-10-06T05:21:52.122Z,95842.88
2022-10-06T05:24:22.859Z,95838.56
2022-10-06T05:26:49.926Z,95837.47
2022-10-06T05:29:16.994Z,95839.41
2022-10-06T05:31:45.447Z,95813.31
2022-10-06T05:34:14.223Z,95828.72
2022-10-06T05:36:40.917Z,95858.13
2022-10-06T05:39:10.131Z,95855.78
2022-10-06T05:41:45.232Z,95851.75
2022-10-06T05:44:13.616Z,95844.19
2022-10-06T05:46:42.062Z,95842.41
2022-10-06T05:49:10.781Z,95857.31
2022-10-06T05:51:41.957Z,95860.34
2022-10-06T05:54:14.491Z,95834.97
2022-10-06T05:56:41.729Z,95882.47
2022-10-06T05:59:08.483Z,95902.28
2022-10-06T06:01:39.947Z,95869.34
2022-10-06T06:04:14.150Z,95867.00
2022-10-06T06:06:49.121Z,95904.34
2022-10-06T06:09:21.692Z,95914.88
2022-10-06T06:11:53.055Z,95913.97
2022-10-06T06:14:45.584Z,95941.91
2022-10-06T06:17:19.823Z,95952.63
2022-10-06T06:19:47.025Z,95955.03
2022-10-06T06:22:15.318Z,95945.72
2022-10-06T06:24:43.908Z,95961.69
2022-10-06T06:27:11.255Z,95959.91
2022-10-06T06:29:40.213Z,95927.09
2022-10-06T06:32:09.695Z,95904.97
2022-10-06T06:34:37.147Z,95921.59
2022-10-06T06:37:08.497Z,95925.66
2022-10-06T06:39:37.240Z,95899.53
2022-10-06T06:42:08.479Z,95894.47
2022-10-06T06:44:51.020Z,95909.47
2022-10-06T06:47:39.880Z,95914.28
2022-10-06T06:50:10.452Z,95943.41
2022-10-06T06:52:39.080Z,95927.38
2022-10-06T06:55:08.222Z,95949.66
2022-10-06T06:57:35.208Z,95939.81
2022-10-06T07:00:08.357Z,95916.53
2022-10-06T07:02:37.323Z,95936.38
2022-10-06T07:05:05.533Z,95953.59
2022-10-06T07:07:32.631Z,95913.84
2022-10-06T07:10:00.193Z,95905.84
2022-10-06T07:12:26.947Z,95900.06
2022-10-06T07:15:16.918Z,95893.63
2022-10-06T07:18:06.590Z,95927.72
2022-10-06T07:20:52.314Z,95941.22
2022-10-06T07:23:39.698Z,95928.78
2022-10-06T07:26:11.423Z,95963.94
2022-10-06T07:28:38.551Z,95967.28
2022-10-06T07:31:06.819Z,95950.91
2022-10-06T07:33:34.181Z,95944.94
2022-10-06T07:36:04.915Z,95981.91
2022-10-06T07:38:33.012Z,95989.88
2022-10-06T07:41:19.367Z,95955.72
2022-10-06T07:43:53.972Z,96008.44
2022-10-06T07:46:21.930Z,95958.72
2022-10-06T07:49:08.533Z,95941.59
2022-10-06T07:51:36.679Z,95995.53
2022-10-06T07:54:04.093Z,95981.84
2022-10-06T07:56:50.522Z,95985.09
2022-10-06T07:59:20.827Z,95951.00
2022-10-06T08:01:49.280Z,96001.66
2022-10-06T08:04:16.222Z,95960.97
2022-10-06T08:06:43.257Z,95968.84
2022-10-06T08:09:10.002Z,95999.59
2022-10-06T08:11:36.907Z,95980.13
2022-10-06T08:14:03.991Z,96000.09
2022-10-06T08:16:30.902Z,95985.16
2022-10-06T08:18:59.360Z,96041.50
2022-10-06T08:21:31.317Z,96038.47
2022-10-06T08:23:59.409Z,96035.44
2022-10-06T08:26:27.886Z,96064.69
2022-10-06T08:29:00.609Z,96050.34
2022-10-06T08:31:27.901Z,96053.38
2022-10-06T08:33:56.804Z,96056.41
2022-10-06T08:36:31.035Z,96037.09
2022-10-06T08:39:00.193Z,96048.88
2022-10-06T08:41:32.899Z,96062.47
2022-10-06T08:44:06.358Z,96050.44
2022-10-06T08:46:41.518Z,96056.69
2022-10-06T08:49:18.389Z,96066.66
2022-10-06T08:52:04.816Z,96089.50
2022-10-06T08:54:45.686Z,96069.31
2022-10-06T08:57:19.762Z,96068.31
2022-10-06T08:59:53.753Z,96103.06
2022-10-06T09:02:30.073Z,96096.44
2022-10-06T09:05:03.069Z,96101.25
2022-10-06T09:07:53.302Z,96051.50
2022-10-06T09:10:52.364Z,96087.13
2022-10-06T09:13:47.292Z,96094.75
2022-10-06T09:16:28.239Z,96081.97
2022-10-06T09:19:15.771Z,96081.16
2022-10-06T09:21:54.022Z,96054.56
2022-10-06T09:24:30.149Z,96071.69
2022-10-06T09:26:59.171Z,96068.78
2022-10-06T09:29:31.843Z,96094.66
2022-10-06T09:31:59.341Z,96062.91
2022-10-06T09:34:45.624Z,96088.38
2022-10-06T09:37:13.796Z,96059.22
2022-10-06T09:39:45.684Z,96084.53
2022-10-06T09:42:18.670Z,96079.94
2022-10-06T09:44:51.490Z,96105.47
2022-10-06T09:47:35.169Z,96085.97
2022-10-06T09:50:05.234Z,96091.22
2022-10-06T09:52:32.061Z,96089.47
2022-10-06T09:55:17.851Z,96099.84
2022-10-06T09:57:50.286Z,96074.94
2022-10-06T10:00:29.682Z,96075.97
2022-10-06T10:03:09.212Z,96085.25
2022-10-06T10:05:47.947Z,96088.16
2022-10-06T10:08:20.745Z,96076.31
2022-10-06T10:10:49.610Z,96083.69
2022-10-06T10:13:24.656Z,96077.28
2022-10-06T10:15:57.580Z,96068.41
2022-10-06T10:18:29.035Z,96063.84
2022-10-06T10:21:08.574Z,96054.13
2022-10-06T10:23:43.930Z,96069.91
2022-10-06T10:26:32.525Z,96055.63
2022-10-06T10:29:15.162Z,96064.09
2022-10-06T10:32:02.530Z,96080.50
2022-10-06T10:34:45.449Z,96069.34
2022-10-06T10:37:15.019Z,96070.44
2022-10-06T10:39:49.609Z,96055.56
2022-10-06T10:42:45.545Z,96041.50
2022-10-06T10:45:24.682Z,96060.72
2022-10-06T10:47:53.595Z,96055.31
2022-10-06T10:50:27.129Z,96067.34
2022-10-06T10:53:16.078Z,96050.94
2022-10-06T10:55:48.787Z,96086.84
2022-10-06T10:58:33.673Z,96046.28
2022-10-06T11:01:15.991Z,96054.00
2022-10-06T11:03:43.461Z,96050.47
2022-10-06T11:06:48.870Z,96015.66
2022-10-06T11:09:26.591Z,96034.19
2022-10-06T11:12:06.262Z,96012.78
2022-10-06T11:14:42.422Z,96038.59
2022-10-06T11:17:27.414Z,96039.94
2022-10-06T11:20:15.837Z,96022.91
2022-10-06T11:23:08.943Z,96046.91
2022-10-06T11:26:03.867Z,96050.75
2022-10-06T11:28:53.874Z,96055.78
2022-10-06T11:31:33.067Z,96052.84
2022-10-06T11:34:02.142Z,96062.53
2022-10-06T11:36:38.307Z,96052.53
2022-10-06T11:39:15.333Z,96041.38
2022-10-06T11:41:52.260Z,96047.63
2022-10-06T11:44:41.446Z,96024.88
2022-10-06T11:47:28.179Z,96011.19
2022-10-06T11:50:01.367Z,96006.84
2022-10-06T11:52:28.420Z,96011.75
2022-10-06T11:55:06.295Z,96038.16
2022-10-06T11:57:33.900Z,96024.34
2022-10-06T12:00:03.308Z,96029.34
2022-10-06T12:02:41.390Z,96010.94
2022-10-06T12:08:35.622Z,96021.88
2022-10-06T12:11:03.185Z,96026.50
2022-10-06T12:14:49.513Z,96023.31
2022-10-06T12:19:39.890Z,96015.03
2022-10-06T12:22:25.536Z,96000.69
2022-10-06T12:24:52.809Z,95980.47
2022-10-06T12:27:28.231Z,96013.94
2022-10-06T12:30:19.835Z,96017.03
2022-10-06T12:32:55.920Z,96010.91
2022-10-06T12:35:37.124Z,96029.75
2022-10-06T12:38:06.177Z,95997.25
2022-10-06T12:40:43.065Z,95970.63
2022-10-06T12:43:12.573Z,95953.84
2022-10-06T12:45:59.005Z,95984.63
2022-10-06T12:48:38.009Z,95970.53
2022-10-06T12:54:21.720Z,95964.31
2022-10-06T12:56:58.888Z,95957.44
2022-10-06T12:59:35.113Z,95971.38
2022-10-06T13:02:08.302Z,95989.91
2022-10-06T13:04:45.814Z,95959.94
2022-10-06T13:07:59.116Z,95944.63
2022-10-06T13:10:27.319Z,95942.38
2022-10-06T13:12:55.485Z,95947.47
2022-10-06T13:15:24.350Z,95939.50
2022-10-06T13:18:11.934Z,95933.66
2022-10-06T13:20:49.318Z,95936.09
2022-10-06T13:23:28.069Z,95961.81
2022-10-06T13:26:01.095Z,95958.41
2022-10-06T13:28:45.056Z,95960.25
2022-10-06T13:31:17.490Z,95965.66
2022-10-06T13:33:48.589Z,95956.53
2022-10-06T13:36:15.570Z,95959.84
2022-10-06T13:38:42.895Z,95974.25
2022-10-06T13:41:28.235Z,95965.00
2022-10-06T13:44:18.827Z,95968.63
2022-10-06T13:46:52.403Z,95953.50
2022-10-06T13:49:31.332Z,95935.63
2022-10-06T13:52:02.946Z,95936.00
2022-10-06T13:54:51.558Z,95931.44
2022-10-06T13:57:33.989Z,95941.59
2022-10-06T14:00:20.761Z,95962.22
2022-10-06T14:02:57.098Z,95980.63
2022-10-06T14:05:40.896Z,95949.63
2022-10-06T14:08:10.862Z,95973.28
2022-10-06T14:10:40.949Z,95963.03
2022-10-06T14:13:15.141Z,95965.75
2022-10-06T14:15:48.127Z,95940.34
2022-10-06T14:18:20.747Z,95918.75
2022-10-06T14:20:49.951Z,95912.81
2022-10-06T14:23:48.705Z,95903.97
2022-10-06T14:26:18.014Z,95878.06
2022-10-06T14:28:47.840Z,95911.38
2022-10-06T14:31:15.413Z,95916.59
2022-10-06T14:33:43.029Z,95891.63
2022-10-06T14:36:16.956Z,95933.25
2022-10-06T14:38:46.961Z,95913.25
2022-10-06T14:41:18.218Z,95915.22
2022-10-06T14:43:47.453Z,95901.38
2022-10-06T14:46:15.574Z,95908.06
2022-10-06T14:48:42.847Z,95898.06
2022-10-06T14:51:10.563Z,95890.44
2022-10-06T14:53:39.723Z,95902.31
2022-10-06T14:56:11.537Z,95898.44
2022-10-06T14:58:40.520Z,95887.41
2022-10-06T15:01:07.980Z,95864.91
2022-10-06T15:03:35.752Z,95859.47
2022-10-06T15:06:23.270Z,95861.66
2022-10-06T15:08:52.193Z,95875.03
2022-10-06T15:11:20.506Z,95890.94
2022-10-06T15:13:48.490Z,95885.94
2022-10-06T15:16:16.330Z,95892.38
2022-10-06T15:18:43.435Z,95885.53
2022-10-06T15:21:11.769Z,95878.72
2022-10-06T15:23:39.669Z,95874.66
2022-10-06T15:26:25.134Z,95876.53
2022-10-06T15:29:00.849Z,95887.94
2022-10-06T15:31:30.304Z,95874.53
2022-10-06T15:33:58.299Z,95864.38
2022-10-06T15:36:25.818Z,95876.63
2022-10-06T15:38:52.538Z,95884.84
2022-10-06T15:41:19.618Z,95882.59
2022-10-06T15:43:55.688Z,95867.53
2022-10-06T15:46:26.289Z,95874.69
2022-10-06T15:48:55.616Z,95873.81
2022-10-06T15:51:22.637Z,95887.44
2022-10-06T15:53:50.513Z,95873.16
2022-10-06T15:56:17.719Z,95870.34
2022-10-06T15:58:45.208Z,95858.97
2022-10-06T16:01:25.733Z,95865.13
2022-10-06T16:03:53.513Z,95858.63
2022-10-06T16:06:43.218Z,95858.66
2022-10-06T16:09:12.218Z,95846.09
2022-10-06T16:11:39.767Z,95864.81
2022-10-06T16:14:07.939Z,95859.78
2022-10-06T16:16:38.824Z,95885.84
2022-10-06T16:19:08.630Z,95871.09
2022-10-06T16:21:35.375Z,95849.22
2022-10-06T16:24:02.612Z,95864.03
2022-10-06T16:26:30.292Z,95867.91
2022-10-06T16:28:57.491Z,95859.88
2022-10-06T16:31:24.991Z,95855.91
2022-10-06T16:33:52.406Z,95882.00
2022-10-06T16:36:19.667Z,95885.59
2022-10-06T16:38:50.986Z,95882.56
2022-10-06T16:41:18.518Z,95882.94
2022-10-06T16:43:47.298Z,95877.13
2022-10-06T16:46:16.605Z,95875.94
2022-10-06T16:48:45.755Z,95869.25
2022-10-06T16:51:18.934Z,95869.97
2022-10-06T16:53:51.245Z,95898.72
2022-10-06T16:56:21.184Z,95888.88
2022-10-06T16:58:53.798Z,95896.38
2022-10-06T17:01:23.829Z,95882.88
2022-10-06T17:04:21.403Z,95893.97
2022-10-06T17:06:51.154Z,95904.25
2022-10-06T17:09:21.173Z,95904.63
2022-10-06T17:11:50.569Z,95908.94
2022-10-06T17:14:17.990Z,95919.56
2022-10-06T17:16:46.746Z,95900.16
2022-10-06T17:19:15.554Z,95898.81
2022-10-06T17:21:46.632Z,95902.53
2022-10-06T17:24:15.291Z,95895.28
2022-10-06T17:26:44.281Z,95900.91
2022-10-06T17:29:21.281Z,95904.09
2022-10-06T17:31:51.043Z,95909.41
2022-10-06T17:34:21.933Z,95924.38
2022-10-06T17:36:52.088Z,95916.34
2022-10-06T17:39:23.091Z,95918.63
2022-10-06T17:41:52.942Z,95918.69
2022-10-06T17:44:23.361Z,95916.28
2022-10-06T17:46:52.755Z,95896.53
2022-10-06T17:49:21.611Z,95908.69
2022-10-06T17:51:50.255Z,95897.56
2022-10-06T17:54:20.231Z,95900.09
2022-10-06T17:56:49.348Z,95903.25
2022-10-06T17:59:19.370Z,95895.69
2022-10-06T18:01:46.235Z,95902.97
2022-10-06T18:04:17.538Z,95923.09
2022-10-06T18:06:46.173Z,95894.28
2022-10-06T18:09:14.710Z,95905.41
2022-10-06T18:11:44.048Z,95904.22
2022-10-06T18:14:13.773Z,95892.56
2022-10-06T18:16:45.385Z,95910.72
2022-10-06T18:19:18.595Z,95923.66
2022-10-06T18:21:47.865Z,95914.38
2022-10-06T18:24:17.486Z,95904.28
2022-10-06T18:26:48.816Z,95913.88
2022-10-06T18:29:19.220Z,95924.63
2022-10-06T18:31:49.650Z,95926.22
2022-10-06T18:37:04.785Z,95917.28
2022-10-06T18:39:32.100Z,95916.97
2022-10-06T18:42:03.674Z,95907.31
2022-10-06T18:44:48.742Z,95892.81
2022-10-06T18:47:34.538Z,95924.28
2022-10-06T18:50:01.339Z,95922.94
2022-10-06T18:52:28.279Z,95912.50
2022-10-06T18:54:55.888Z,95925.56
2022-10-06T18:57:27.627Z,95937.34
2022-10-06T18:59:55.158Z,95932.03
2022-10-06T19:02:22.359Z,95926.25
2022-10-06T19:04:49.242Z,95945.50
2022-10-06T19:07:15.961Z,95930.38
2022-10-06T19:09:46.474Z,95920.38
2022-10-06T19:12:14.314Z,95919.00
2022-10-06T19:14:47.442Z,95912.16
2022-10-06T19:17:15.497Z,95918.31
2022-10-06T19:19:51.769Z,95927.06
2022-10-06T19:22:24.690Z,95933.63
2022-10-06T19:24:52.301Z,95923.03
2022-10-06T19:27:24.279Z,95920.38
2022-10-06T19:29:54.665Z,95927.91
2022-10-06T19:32:26.444Z,95909.09
2022-10-06T19:34:57.990Z,95938.13
2022-10-06T19:37:27.462Z,95927.09
2022-10-06T19:39:54.241Z,95917.88
2022-10-06T19:42:40.535Z,95914.91
2022-10-06T19:45:09.558Z,95920.19
2022-10-06T19:47:36.688Z,95910.41
2022-10-06T19:50:10.319Z,95922.69
2022-10-06T19:52:38.605Z,95904.81
2022-10-06T19:55:05.628Z,95940.88
2022-10-06T19:57:33.755Z,95920.72
2022-10-06T20:00:01.091Z,95911.41
2022-10-06T20:02:29.143Z,95934.81
2022-10-06T20:04:57.278Z,95936.00
2022-10-06T20:07:27.595Z,95932.47
2022-10-06T20:09:55.034Z,95894.94
2022-10-06T20:12:25.181Z,95917.44
2022-10-06T20:14:57.574Z,95923.91
2022-10-06T20:17:24.660Z,95934.81
2022-10-06T20:19:56.667Z,95932.34
2022-10-06T20:22:25.682Z,95938.03
2022-10-06T20:24:52.425Z,95942.00
2022-10-06T20:27:19.594Z,95927.66
2022-10-06T20:29:46.579Z,95917.38
2022-10-06T20:32:14.276Z,95909.84
2022-10-06T20:34:42.448Z,95921.41
2022-10-06T20:37:09.235Z,95917.81
2022-10-06T20:39:54.676Z,95928.31
2022-10-06T20:42:22.107Z,95922.19
2022-10-06T20:44:49.066Z,95912.72
2022-10-06T20:47:16.760Z,95924.28
2022-10-06T20:49:44.744Z,95915.38
2022-10-06T20:52:15.319Z,95915.22
2022-10-06T20:54:42.835Z,95882.78
2022-10-06T20:57:09.943Z,95887.97
2022-10-06T20:59:37.898Z,95886.00
2022-10-06T21:02:06.136Z,95863.63
2022-10-06T21:04:34.599Z,95878.81
2022-10-06T21:07:06.043Z,95891.88
2022-10-06T21:09:33.072Z,95903.38
2022-10-06T21:12:00.660Z,95886.03
2022-10-06T21:14:27.397Z,95897.84
2022-10-06T21:16:54.575Z,95894.75
2022-10-06T21:19:21.401Z,95890.59
2022-10-06T21:21:50.729Z,95894.34
2022-10-06T21:24:17.909Z,95895.66
2022-10-06T21:26:45.316Z,95893.06
2022-10-06T21:29:14.140Z,95900.78
2022-10-06T21:31:42.211Z,95890.53
2022-10-06T21:34:09.977Z,95867.69
2022-10-06T21:36:36.721Z,95866.47
2022-10-06T21:39:06.582Z,95854.09
2022-10-06T21:41:38.488Z,95863.66
2022-10-06T21:44:09.841Z,95863.88
2022-10-06T21:46:42.848Z,95881.59
2022-10-06T21:49:15.717Z,95864.44
2022-10-06T21:51:45.758Z,95856.38
2022-10-06T21:54:13.368Z,95842.16
2022-10-06T21:56:40.454Z,95853.72
2022-10-06T21:59:07.798Z,95844.25
2022-10-06T22:01:37.836Z,95856.72
2022-10-06T22:04:05.670Z,95877.47
2022-10-06T22:06:34.710Z,95880.28
2022-10-06T22:09:02.056Z,95898.28
2022-10-06T22:11:38.514Z,95898.53
2022-10-06T22:14:07.573Z,95900.78
2022-10-06T22:16:36.374Z,95904.19
2022-10-06T22:19:05.264Z,95883.69
2022-10-06T22:21:34.884Z,95906.00
2022-10-06T22:24:06.817Z,95885.63
2022-10-06T22:26:37.469Z,95878.16
2022-10-06T22:29:06.972Z,95876.81
2022-10-06T22:31:35.029Z,95885.00
2022-10-06T22:34:06.064Z,95881.97
2022-10-06T22:36:33.774Z,95885.66
2022-10-06T22:39:01.325Z,95878.38
2022-10-06T22:41:28.810Z,95833.16
2022-10-06T22:43:57.964Z,95840.97
2022-10-06T22:46:30.533Z,95860.16
2022-10-06T22:48:58.357Z,95865.75
2022-10-06T22:51:25.588Z,95844.66
2022-10-06T22:53:58.490Z,95807.91
2022-10-06T22:56:30.321Z,95829.50
2022-10-06T22:59:00.016Z,95829.84
2022-10-06T23:01:28.784Z,95825.72
2022-10-06T23:03:56.076Z,95816.25
2022-10-06T23:06:24.472Z,95825.56
2022-10-06T23:08:51.197Z,95838.19
2022-10-06T23:11:20.516Z,95817.56
2022-10-06T23:13:48.498Z,95815.53
2022-10-06T23:16:17.743Z,95811.66
2022-10-06T23:18:45.280Z,95823.91
2022-10-06T23:21:21.541Z,95832.88
2022-10-06T23:23:53.781Z,95817.38
2022-10-06T23:26:21.842Z,95837.84
2022-10-06T23:28:54.775Z,95840.72
2022-10-06T23:31:21.656Z,95827.38
2022-10-06T23:33:49.117Z,95823.16
2022-10-06T23:36:16.148Z,95816.38
2022-10-06T23:38:44.725Z,95821.47
2022-10-06T23:41:12.153Z,95811.06
2022-10-06T23:43:39.038Z,95808.72
2022-10-06T23:46:05.929Z,95804.41
2022-10-06T23:48:32.916Z,95809.03
2022-10-06T23:51:03.864Z,95815.97
2022-10-06T23:53:31.975Z,95822.16
2022-10-06T23:55:59.002Z,95796.88
2022-10-06T23:58:27.329Z,95761.34
